Time;durP1;ratioP1;P1;durP2;ratioP2;P2;SDS_P1;SDS_P2;PMS_P1;PMS_P2;Temp;Humidity;BMP_temperature;BMP_pressure;BME280_temperature;BME280_humidity;BME280_pressure;Samples;Min_cycle;Max_cycle;Signal;HPM_P1;HPM_P2
2022/07/04 00:00:15;;;;;;;6.25;2.70;;;;;;;25.09;53.56;100446.94;2102293;28;20113;-73
2022/07/04 00:01:37;;;;;;;11.90;3.40;;;;;;;25.07;53.73;100440.75;2104779;28;20032;-74
2022/07/04 00:03:00;;;;;;;15.65;4.10;;;;;;;25.07;53.53;100444.34;2102324;28;20591;-73
2022/07/04 00:04:22;;;;;;;8.43;2.80;;;;;;;25.06;53.70;100445.28;2093633;28;20484;-73
2022/07/04 00:05:44;;;;;;;9.48;3.40;;;;;;;25.05;53.63;100439.94;2099804;28;20044;-74
2022/07/04 00:07:06;;;;;;;7.57;2.88;;;;;;;25.04;53.77;100435.50;2110354;28;20172;-73
2022/07/04 00:08:28;;;;;;;11.25;2.85;;;;;;;25.02;53.59;100438.25;2105231;28;20378;-74
2022/07/04 00:09:52;;;;;;;11.57;3.20;;;;;;;25.03;53.96;100440.03;2104736;28;20037;-73
2022/07/04 00:11:14;;;;;;;21.23;4.00;;;;;;;25.04;53.63;100440.91;2102606;28;20071;-74
2022/07/04 00:12:37;;;;;;;5.78;3.10;;;;;;;25.05;53.58;100442.66;2108947;28;20071;-73
2022/07/04 00:14:00;;;;;;;9.77;3.35;;;;;;;25.05;53.96;100438.13;2098476;28;20076;-73
2022/07/04 00:15:22;;;;;;;9.80;3.38;;;;;;;25.05;53.85;100431.84;2102458;28;20082;-73
2022/07/04 00:16:45;;;;;;;21.05;5.22;;;;;;;25.07;53.79;100444.34;2100830;28;20056;-73
2022/07/04 00:18:06;;;;;;;11.40;3.17;;;;;;;25.06;54.05;100434.47;2095276;28;20040;-74
2022/07/04 00:19:29;;;;;;;9.57;2.80;;;;;;;25.06;53.74;100437.19;2102234;28;20048;-74
2022/07/04 00:20:52;;;;;;;8.73;3.13;;;;;;;25.04;53.91;100432.78;2102228;28;20131;-74
2022/07/04 00:22:15;;;;;;;13.35;3.47;;;;;;;25.03;53.98;100429.22;2107471;28;20043;-73
2022/07/04 00:23:38;;;;;;;7.35;3.17;;;;;;;25.04;53.99;100425.56;2113352;28;20130;-73
2022/07/04 00:25:00;;;;;;;9.57;2.75;;;;;;;25.05;54.26;100421.91;2110654;28;20075;-73
2022/07/04 00:26:23;;;;;;;10.23;3.03;;;;;;;25.05;53.97;100424.63;2102054;28;20050;-73
2022/07/04 00:27:44;;;;;;;9.02;3.20;;;;;;;25.06;54.04;100426.38;2104135;28;20074;-74
2022/07/04 00:29:07;;;;;;;12.43;2.80;;;;;;;25.07;54.21;100422.72;2095786;28;20032;-74
2022/07/04 00:30:29;;;;;;;12.18;3.92;;;;;;;25.08;54.26;100426.28;2099526;28;20377;-73
2022/07/04 00:31:52;;;;;;;8.73;2.92;;;;;;;25.10;54.46;100427.09;2102411;28;20048;-74
2022/07/04 00:33:13;;;;;;;11.95;3.10;;;;;;;25.13;54.21;100424.25;2102345;28;20074;-73
2022/07/04 00:34:36;;;;;;;9.20;3.10;;;;;;;25.11;54.34;100412.63;2103510;28;20043;-73
2022/07/04 00:35:58;;;;;;;9.50;2.90;;;;;;;25.10;54.38;100421.69;2110461;28;20599;-73
2022/07/04 00:37:19;;;;;;;14.45;4.40;;;;;;;25.08;54.46;100429.84;2103641;28;20036;-73
2022/07/04 00:38:42;;;;;;;14.23;2.90;;;;;;;25.08;54.27;100424.44;2101719;28;20040;-74
2022/07/04 00:40:06;;;;;;;7.78;3.53;;;;;;;25.10;54.42;100421.69;2104705;28;20068;-73
2022/07/04 00:41:29;;;;;;;11.40;3.15;;;;;;;25.08;54.29;100419.06;2102692;28;20047;-74
2022/07/04 00:42:50;;;;;;;10.50;2.83;;;;;;;25.10;54.42;100421.69;2104306;28;20059;-74
2022/07/04 00:44:15;;;;;;;12.48;2.38;;;;;;;25.09;54.14;100415.41;2096893;28;20571;-73
2022/07/04 00:45:36;;;;;;;10.35;3.17;;;;;;;25.07;54.47;100421.84;2111190;28;20134;-74
2022/07/04 00:46:59;;;;;;;10.80;4.13;;;;;;;25.06;54.28;100417.41;2104270;28;20508;-74
2022/07/04 00:48:20;;;;;;;8.48;2.83;;;;;;;25.05;54.33;100415.63;2101908;28;20139;-73
2022/07/04 00:49:43;;;;;;;8.77;2.83;;;;;;;25.05;54.22;100419.22;2101225;28;20550;-73
2022/07/04 00:51:05;;;;;;;8.63;2.92;;;;;;;25.07;54.14;100414.63;2101724;28;20065;-73
2022/07/04 00:52:28;;;;;;;7.93;2.90;;;;;;;25.08;54.37;100415.47;2102247;28;20052;-74
2022/07/04 00:53:51;;;;;;;8.80;2.75;;;;;;;25.08;54.07;100418.16;2102304;28;20569;-73
2022/07/04 00:55:17;;;;;;;7.68;2.40;;;;;;;25.06;54.41;100426.38;2102229;28;20054;-74
2022/07/04 00:56:40;;;;;;;10.93;2.92;;;;;;;25.05;54.48;100419.22;2093565;28;20421;-73
2022/07/04 00:58:02;;;;;;;8.77;2.63;;;;;;;25.04;54.39;100419.28;2085354;28;20152;-73
2022/07/04 00:59:24;;;;;;;10.95;3.00;;;;;;;25.02;54.19;100417.53;2100706;28;20078;-73
2022/07/04 01:00:46;;;;;;;12.23;2.42;;;;;;;25.03;54.43;100418.41;2102211;28;20044;-74
2022/07/04 01:02:08;;;;;;;12.80;2.58;;;;;;;25.00;54.13;100411.34;2107032;28;20456;-74
2022/07/04 01:03:31;;;;;;;5.65;2.33;;;;;;;24.98;54.52;100413.25;2110123;28;20151;-73
2022/07/04 01:04:52;;;;;;;9.57;2.42;;;;;;;24.97;54.42;100408.78;2110497;28;20191;-74
2022/07/04 01:06:16;;;;;;;9.52;3.25;;;;;;;24.96;54.62;100415.13;2110454;28;20493;-73
2022/07/04 01:07:38;;;;;;;11.15;2.72;;;;;;;24.95;54.53;100416.09;2107660;28;20565;-73
2022/07/04 01:09:01;;;;;;;9.00;2.50;;;;;;;24.92;54.43;100407.28;2110483;28;20048;-73
2022/07/04 01:10:24;;;;;;;9.60;2.55;;;;;;;24.89;54.82;100416.38;2110117;28;20138;-74
2022/07/04 01:11:46;;;;;;;7.32;2.40;;;;;;;24.87;54.56;100415.56;2113153;28;20061;-73
2022/07/04 01:13:09;;;;;;;12.90;3.20;;;;;;;24.89;54.91;100423.56;2113112;28;20047;-74
2022/07/04 01:14:30;;;;;;;9.75;2.60;;;;;;;24.88;54.57;100414.59;2101624;28;20087;-73
2022/07/04 01:15:52;;;;;;;8.82;3.22;;;;;;;24.90;54.51;100414.56;2102646;28;20126;-74
2022/07/04 01:17:14;;;;;;;8.77;2.60;;;;;;;24.89;54.61;100421.78;2117032;28;20164;-74
2022/07/04 01:18:36;;;;;;;6.53;2.75;;;;;;;24.89;54.58;100418.19;2098000;28;20052;-73
2022/07/04 01:19:59;;;;;;;11.52;2.03;;;;;;;24.89;54.49;100421.78;2102208;28;20080;-74
2022/07/04 01:21:23;;;;;;;11.20;3.70;;;;;;;24.89;54.58;100415.47;2093458;28;20131;-74
2022/07/04 01:22:46;;;;;;;11.25;2.53;;;;;;;24.86;54.71;100412.94;2110442;28;20063;-73
2022/07/04 01:24:10;;;;;;;10.32;2.50;;;;;;;24.87;54.68;100412.00;2104826;28;20040;-73
2022/07/04 01:25:33;;;;;;;10.10;2.50;;;;;;;24.87;54.62;100412.88;2102324;28;20156;-74
2022/07/04 01:26:55;;;;;;;11.95;3.10;;;;;;;24.91;54.97;100410.91;2103967;28;20040;-74
2022/07/04 01:28:19;;;;;;;7.75;3.03;;;;;;;24.93;54.86;100415.31;2110299;28;20082;-74
2022/07/04 01:29:42;;;;;;;8.90;2.80;;;;;;;24.97;54.87;100418.72;2104825;28;20139;-74
2022/07/04 01:31:03;;;;;;;8.02;2.65;;;;;;;24.94;54.96;100414.31;2103930;28;20078;-74
2022/07/04 01:32:26;;;;;;;15.25;3.33;;;;;;;24.94;54.90;100416.19;2107291;28;20039;-73
2022/07/04 01:33:49;;;;;;;9.82;2.40;;;;;;;24.92;54.71;100423.47;2101399;28;20051;-73
2022/07/04 01:35:12;;;;;;;12.93;2.80;;;;;;;24.90;54.83;100411.88;2096406;28;20410;-74
2022/07/04 01:36:35;;;;;;;6.30;2.42;;;;;;;24.88;55.22;100414.59;2099697;28;20048;-73
2022/07/04 01:37:58;;;;;;;10.43;2.60;;;;;;;24.87;55.09;100417.41;2094132;28;20047;-74
2022/07/04 01:39:19;;;;;;;8.48;2.67;;;;;;;24.88;55.04;100420.00;2099195;28;20469;-73
2022/07/04 01:40:42;;;;;;;9.63;2.90;;;;;;;24.83;55.13;100411.25;2107961;28;20043;-74
2022/07/04 01:42:04;;;;;;;11.43;2.70;;;;;;;24.80;55.27;100416.81;2096533;28;20525;-74
2022/07/04 01:43:27;;;;;;;14.05;2.78;;;;;;;24.77;55.63;100403.44;2099312;28;20481;-74
2022/07/04 01:44:48;;;;;;;8.82;2.58;;;;;;;24.76;55.66;100419.72;2101671;28;20044;-74
2022/07/04 01:46:10;;;;;;;9.70;2.80;;;;;;;24.75;55.69;100410.75;2101694;28;20060;-73
2022/07/04 01:47:32;;;;;;;10.82;2.70;;;;;;;24.75;55.73;100418.84;2105558;28;20040;-74
2022/07/04 01:48:55;;;;;;;8.77;2.03;;;;;;;24.76;55.44;100414.31;2107234;28;20044;-73
2022/07/04 01:50:17;;;;;;;9.30;3.25;;;;;;;24.75;55.41;100420.66;2104775;28;20059;-73
2022/07/04 01:51:45;;;;;;;11.05;2.42;;;;;;;24.76;55.33;100415.19;2104682;28;20047;-74
2022/07/04 01:53:08;;;;;;;11.07;2.40;;;;;;;24.76;55.56;100409.78;2104780;28;20047;-73
2022/07/04 01:54:30;;;;;;;8.57;2.30;;;;;;;24.76;55.50;100409.78;2102242;28;20668;-74
2022/07/04 01:55:53;;;;;;;8.25;2.30;;;;;;;24.76;55.50;100407.09;2112833;28;20050;-73
2022/07/04 01:57:15;;;;;;;14.23;3.45;;;;;;;24.75;55.34;100409.88;2106146;28;20078;-73
2022/07/04 01:58:37;;;;;;;9.52;2.50;;;;;;;24.75;55.37;100405.34;2109907;28;20074;-73
2022/07/04 02:01:39;;;;;;;9.77;2.45;;;;;;;24.80;55.05;100415.94;2104477;28;20182;-74
2022/07/04 02:03:00;;;;;;;11.63;2.65;;;;;;;24.80;55.04;100421.34;2101931;28;20048;-73
2022/07/04 02:04:23;;;;;;;11.85;2.35;;;;;;;24.80;54.90;100422.22;2101657;28;20071;-73
2022/07/04 02:05:45;;;;;;;9.73;2.60;;;;;;;24.81;54.87;100415.00;2101945;28;20073;-73
2022/07/04 02:07:09;;;;;;;13.20;3.17;;;;;;;24.82;55.11;100422.13;2101615;28;20048;-73
2022/07/04 02:10:08;;;;;;;8.68;2.35;;;;;;;24.83;55.01;100424.75;2112230;28;20075;-73
2022/07/04 02:13:00;;;;;;;11.02;2.63;;;;;;;24.84;54.82;100428.34;2110423;28;20062;-73
2022/07/04 02:13:13;;;;;;;10.15;2.50;;;;;;;24.81;54.78;100423.09;2112810;28;20413;-74
2022/07/04 02:14:35;;;;;;;5.78;2.22;;;;;;;24.80;54.88;100418.66;2105917;28;20043;-74
2022/07/04 02:15:57;;;;;;;9.77;2.53;;;;;;;24.78;54.92;100431.34;2101832;28;20404;-74
2022/07/04 02:17:20;;;;;;;14.65;2.75;;;;;;;24.76;54.87;100425.13;2101563;28;20079;-74
2022/07/04 02:18:41;;;;;;;8.20;2.42;;;;;;;24.76;55.01;100435.91;2101292;28;20134;-73
2022/07/04 02:20:06;;;;;;;11.13;2.38;;;;;;;24.73;54.93;100431.56;2102423;28;20048;-74
2022/07/04 02:21:28;;;;;;;9.27;2.90;;;;;;;24.71;55.06;100427.16;2103039;28;20067;-74
2022/07/04 02:22:52;;;;;;;11.82;2.70;;;;;;;24.70;55.41;100438.91;2104358;28;20052;-73
2022/07/04 02:24:14;;;;;;;5.82;2.13;;;;;;;24.67;55.40;100433.69;2106157;28;20044;-73
2022/07/04 02:25:36;;;;;;;8.93;2.40;;;;;;;24.66;55.35;100430.09;2103586;28;20520;-73
2022/07/04 02:27:00;;;;;;;9.60;2.45;;;;;;;24.63;55.54;100425.72;2103453;28;20062;-73
2022/07/04 02:28:23;;;;;;;8.52;2.47;;;;;;;24.63;55.59;100432.94;2107277;28;20051;-73
2022/07/04 02:29:45;;;;;;;6.63;1.75;;;;;;;24.61;55.57;100430.31;2104318;28;20072;-74
2022/07/04 02:31:08;;;;;;;8.23;2.72;;;;;;;24.60;55.88;100435.78;2103209;28;20100;-74
2022/07/04 02:32:30;;;;;;;9.77;2.78;;;;;;;24.59;55.95;100431.34;2111469;28;20133;-73
2022/07/04 02:33:53;;;;;;;12.55;3.85;;;;;;;24.59;55.99;100428.63;2103341;28;20036;-74
2022/07/04 02:35:16;;;;;;;6.85;2.10;;;;;;;24.58;56.25;100430.47;2103039;28;20440;-73
2022/07/04 02:36:37;;;;;;;18.50;4.93;;;;;;;24.58;56.27;100435.00;2105817;28;20454;-73
2022/07/04 02:38:02;;;;;;;5.10;2.13;;;;;;;24.56;56.32;100437.75;2104694;28;20082;-74
2022/07/04 02:39:24;;;;;;;12.18;2.95;;;;;;;24.54;56.43;100436.09;2103317;28;20083;-74
2022/07/04 02:40:47;;;;;;;6.63;2.40;;;;;;;24.54;56.49;100434.28;2109198;28;20453;-73
2022/07/04 02:42:10;;;;;;;10.68;2.78;;;;;;;24.54;56.68;100434.28;2111329;28;20081;-73
2022/07/04 02:43:31;;;;;;;8.85;2.55;;;;;;;24.55;56.62;100440.50;2103168;28;20459;-73
2022/07/04 02:44:54;;;;;;;13.90;3.03;;;;;;;24.56;56.90;100448.53;2092088;28;20119;-73
2022/07/04 02:46:15;;;;;;;9.75;2.65;;;;;;;24.56;56.84;100436.88;2107073;28;20404;-73
2022/07/04 02:47:37;;;;;;;11.32;2.63;;;;;;;24.54;57.14;100439.66;2111409;28;20397;-73
2022/07/04 02:49:00;;;;;;;9.90;2.47;;;;;;;24.55;57.07;100438.69;2094521;28;20044;-73
2022/07/04 02:50:23;;;;;;;9.68;2.85;;;;;;;24.55;57.04;100436.00;2100430;28;20519;-73
2022/07/04 02:51:44;;;;;;;12.20;2.83;;;;;;;24.55;56.96;100440.50;2104447;28;20044;-73
2022/07/04 02:53:08;;;;;;;10.88;2.78;;;;;;;24.55;57.00;100444.09;2109182;28;20123;-73
2022/07/04 02:54:29;;;;;;;13.63;2.67;;;;;;;24.53;57.18;100445.13;2106450;28;20712;-74
2022/07/04 02:55:52;;;;;;;9.25;2.55;;;;;;;24.52;57.33;100446.06;2102654;28;20040;-73
2022/07/04 02:57:15;;;;;;;10.73;2.60;;;;;;;24.50;57.17;100442.56;2103012;28;20185;-73
2022/07/04 02:58:36;;;;;;;10.27;2.63;;;;;;;24.48;57.29;100448.03;2094083;28;20057;-74
2022/07/04 02:59:59;;;;;;;6.95;2.40;;;;;;;24.47;57.33;100443.59;2108848;28;20044;-73
2022/07/04 03:01:20;;;;;;;10.68;2.42;;;;;;;24.45;57.28;100444.59;2111388;28;20100;-73
2022/07/04 03:02:43;;;;;;;10.52;2.83;;;;;;;24.44;57.47;100442.84;2108106;28;20159;-74
2022/07/04 03:04:04;;;;;;;8.88;2.28;;;;;;;24.42;57.60;100448.31;2094682;28;20068;-73
2022/07/04 03:05:28;;;;;;;8.10;2.30;;;;;;;24.40;57.58;100435.84;2100164;28;20164;-73
2022/07/04 03:06:51;;;;;;;6.03;2.50;;;;;;;24.39;57.71;100442.19;2106930;28;20044;-73
2022/07/04 03:08:14;;;;;;;14.50;2.35;;;;;;;24.41;57.51;100437.63;2102496;28;20087;-74
2022/07/04 03:09:36;;;;;;;8.07;2.65;;;;;;;24.42;57.51;100437.50;2102295;28;20048;-73
2022/07/04 03:10:59;;;;;;;12.85;2.80;;;;;;;24.44;57.13;100441.03;2102706;28;20063;-73
2022/07/04 03:12:20;;;;;;;12.02;2.63;;;;;;;24.48;57.08;100445.31;2104462;28;20378;-73
2022/07/04 03:13:43;;;;;;;11.68;2.30;;;;;;;24.51;57.02;100461.38;2109656;28;20480;-73
2022/07/04 03:15:06;;;;;;;12.52;4.35;;;;;;;24.55;56.98;100446.78;2094475;28;20079;-73
2022/07/04 03:16:27;;;;;;;10.40;2.40;;;;;;;24.59;56.80;100452.94;2100764;28;20498;-73
2022/07/04 03:17:50;;;;;;;15.07;3.85;;;;;;;24.57;57.02;100450.31;2098844;28;21993;-73
2022/07/04 03:19:11;;;;;;;5.22;1.35;;;;;;;24.57;57.02;100450.31;2094810;28;20059;-73
2022/07/04 03:20:34;;;;;;;12.63;2.40;;;;;;;24.57;57.07;100455.69;2100122;28;20076;-73
2022/07/04 03:21:57;;;;;;;7.68;2.35;;;;;;;24.58;56.99;100454.75;2108534;28;20197;-74
2022/07/04 03:23:19;;;;;;;12.43;2.80;;;;;;;24.61;57.05;100459.16;2113600;28;20075;-73
2022/07/04 03:24:42;;;;;;;10.10;2.55;;;;;;;24.61;56.84;100451.91;2110975;28;20558;-73
2022/07/04 03:26:03;;;;;;;5.50;1.98;;;;;;;24.65;56.89;100463.44;2111113;28;20405;-73
2022/07/04 03:27:26;;;;;;;7.97;2.45;;;;;;;24.69;56.90;100462.34;2101693;28;20040;-73
2022/07/04 03:28:47;;;;;;;7.80;2.35;;;;;;;24.74;56.70;100456.75;2102346;28;20090;-73
2022/07/04 03:30:10;;;;;;;11.90;2.08;;;;;;;24.79;56.64;100465.50;2088423;28;20044;-73
2022/07/04 03:31:31;;;;;;;8.73;2.20;;;;;;;24.83;56.65;100457.16;2094284;28;20268;-74
2022/07/04 03:32:54;;;;;;;9.18;1.98;;;;;;;24.90;56.46;100463.19;2086022;28;20048;-73
2022/07/04 03:34:16;;;;;;;11.05;2.80;;;;;;;24.95;56.30;100464.69;2083569;28;20079;-73
2022/07/04 03:35:38;;;;;;;10.23;2.42;;;;;;;25.01;56.36;100463.53;2091831;28;20092;-73
2022/07/04 03:37:00;;;;;;;10.30;2.30;;;;;;;25.07;55.99;100457.84;2094317;28;20151;-73
2022/07/04 03:38:23;;;;;;;8.50;2.28;;;;;;;25.13;55.99;100457.53;2103361;28;20078;-73
2022/07/04 03:39:46;;;;;;;7.80;2.45;;;;;;;25.18;55.87;100462.72;2098061;28;20029;-74
2022/07/04 03:41:07;;;;;;;7.38;2.13;;;;;;;25.24;55.69;100466.00;2102733;28;20135;-74
2022/07/04 03:42:29;;;;;;;7.93;1.95;;;;;;;25.31;55.33;100464.72;2088341;28;20047;-73
2022/07/04 03:43:51;;;;;;;10.60;2.70;;;;;;;25.39;55.25;100464.34;2091497;28;20090;-73
2022/07/04 03:45:13;;;;;;;6.25;1.80;;;;;;;25.48;54.76;100466.56;2100850;28;20052;-73
2022/07/04 03:46:36;;;;;;;9.65;1.60;;;;;;;25.57;54.78;100471.56;2102768;28;20064;-73
2022/07/04 03:47:57;;;;;;;10.35;2.40;;;;;;;25.66;54.36;100467.53;2097981;28;20502;-73
2022/07/04 03:49:20;;;;;;;6.80;2.03;;;;;;;25.77;54.54;100468.72;2098768;28;20052;-73
2022/07/04 03:50:42;;;;;;;7.18;1.85;;;;;;;25.84;54.13;100469.28;2105236;28;20071;-73
2022/07/04 03:52:04;;;;;;;6.20;1.90;;;;;;;25.90;53.87;100477.06;2098398;28;20082;-73
2022/07/04 03:53:28;;;;;;;13.45;2.47;;;;;;;25.96;53.69;100468.63;2093736;28;20501;-73
2022/07/04 03:54:51;;;;;;;8.88;1.90;;;;;;;26.03;53.64;100474.59;2094328;28;20044;-73
2022/07/04 03:56:13;;;;;;;7.88;2.13;;;;;;;26.09;53.62;100475.13;2094334;28;20825;-73
2022/07/04 03:57:36;;;;;;;13.07;2.13;;;;;;;26.20;53.57;100480.84;2100809;28;20036;-73
2022/07/04 03:58:58;;;;;;;9.18;1.98;;;;;;;26.31;53.30;100480.31;2092192;28;20041;-73
2022/07/04 04:00:20;;;;;;;10.18;2.40;;;;;;;26.43;53.38;100485.06;2091259;28;20049;-73
2022/07/04 04:01:42;;;;;;;;;;;;;;;26.53;53.02;100483.59;2086424;28;20048;-73
2022/07/04 04:05:26;;;;;;;9.82;1.60;;;;;;;26.64;52.89;100485.72;2099718;28;19958;-73
2022/07/04 04:06:26;;;;;;;10.05;1.70;;;;;;;26.88;52.54;100487.06;2113080;28;20142;-73
2022/07/04 04:07:49;;;;;;;8.05;2.10;;;;;;;26.99;52.51;100486.47;2090494;28;20090;-72
2022/07/04 04:09:17;;;;;;;6.40;1.83;;;;;;;27.11;52.33;100485.78;2099352;28;20059;-73
2022/07/04 04:10:39;;;;;;;8.50;2.80;;;;;;;27.21;52.27;100489.72;2102395;28;20146;-73
2022/07/04 04:12:01;;;;;;;15.20;2.20;;;;;;;27.35;52.08;100488.94;2102461;28;20156;-73
2022/07/04 04:13:23;;;;;;;8.52;2.00;;;;;;;27.49;52.10;100489.00;2098188;28;20505;-73
2022/07/04 04:14:46;;;;;;;12.23;2.00;;;;;;;27.61;51.64;100499.16;2094817;28;20040;-73
2022/07/04 04:16:08;;;;;;;6.25;1.60;;;;;;;27.71;51.43;100496.75;2099692;28;20048;-73
2022/07/04 04:17:29;;;;;;;16.25;2.38;;;;;;;27.80;50.95;100489.91;2094257;28;20048;-73
2022/07/04 04:18:52;;;;;;;9.82;2.42;;;;;;;27.88;50.52;100498.47;2094026;28;20040;-73
2022/07/04 04:20:14;;;;;;;11.40;1.80;;;;;;;27.98;50.26;100486.97;2099257;28;20056;-73
2022/07/04 04:21:37;;;;;;;10.60;2.33;;;;;;;28.10;49.89;100488.91;2095924;28;20075;-73
2022/07/04 04:22:59;;;;;;;6.43;1.70;;;;;;;28.19;49.36;100497.50;2099076;28;20048;-73
2022/07/04 04:24:23;;;;;;;7.78;1.80;;;;;;;28.26;49.39;100497.03;2093612;28;20445;-74
2022/07/04 04:25:46;;;;;;;9.05;2.08;;;;;;;28.37;48.89;100493.63;2105329;27;20055;-73
2022/07/04 04:27:07;;;;;;;13.80;2.00;;;;;;;28.50;48.89;100494.63;2118774;27;20039;-73
2022/07/04 04:28:29;;;;;;;10.85;2.17;;;;;;;28.63;48.57;100495.59;2106036;28;20187;-73
2022/07/04 04:29:51;;;;;;;12.23;2.13;;;;;;;28.79;48.32;100498.25;2094055;28;20041;-73
2022/07/04 04:31:14;;;;;;;10.80;2.05;;;;;;;28.90;47.87;100499.28;2098314;28;20520;-73
2022/07/04 04:32:36;;;;;;;8.75;2.00;;;;;;;29.08;47.65;100499.94;2104689;28;20059;-73
2022/07/04 04:33:58;;;;;;;15.90;2.38;;;;;;;29.26;47.32;100498.75;2105293;28;20035;-73
2022/07/04 04:35:20;;;;;;;9.85;2.40;;;;;;;29.39;46.56;100500.69;2101924;28;20044;-73
2022/07/04 04:36:42;;;;;;;10.90;2.28;;;;;;;29.51;46.39;100502.59;2102064;28;20051;-73
2022/07/04 04:38:05;;;;;;;9.73;2.30;;;;;;;29.69;45.96;100507.66;2105040;28;20078;-73
2022/07/04 04:39:29;;;;;;;9.32;2.17;;;;;;;29.86;45.55;100498.34;2095101;28;20211;-73
2022/07/04 04:40:52;;;;;;;11.35;1.90;;;;;;;30.02;44.99;100500.91;2099485;28;20075;-73
2022/07/04 04:42:15;;;;;;;8.63;2.03;;;;;;;30.22;44.60;100502.25;2110553;28;20408;-73
2022/07/04 04:43:39;;;;;;;8.05;1.90;;;;;;;30.46;44.14;100497.78;2096301;28;20135;-73
2022/07/04 04:45:01;;;;;;;8.55;1.77;;;;;;;30.66;43.43;100501.81;2091522;28;20699;-73
2022/07/04 04:46:23;;;;;;;14.43;1.98;;;;;;;30.81;42.79;100501.59;2097586;28;20895;-73
2022/07/04 04:47:46;;;;;;;11.75;2.25;;;;;;;30.99;42.77;100501.22;2096259;28;20048;-73
2022/07/04 04:49:08;;;;;;;9.10;2.42;;;;;;;31.17;42.42;100505.38;2099420;28;20509;-73
2022/07/04 04:50:30;;;;;;;11.80;2.33;;;;;;;31.41;41.69;100503.53;2093729;28;20567;-73
2022/07/04 04:51:52;;;;;;;8.10;1.73;;;;;;;31.62;41.38;100501.97;2094370;28;20647;-73
2022/07/04 04:53:14;;;;;;;11.00;1.98;;;;;;;31.77;40.87;100507.25;2105153;28;20432;-74
2022/07/04 04:54:38;;;;;;;11.13;1.90;;;;;;;31.99;40.02;100504.56;2117534;27;20047;-73
2022/07/04 04:56:01;;;;;;;11.55;1.80;;;;;;;32.18;39.90;100506.78;2106895;28;20059;-74
2022/07/04 04:57:23;;;;;;;9.85;1.67;;;;;;;32.37;39.38;100507.06;2102008;28;20079;-73
2022/07/04 04:58:45;;;;;;;9.93;1.80;;;;;;;32.43;39.12;100507.44;2101205;28;20044;-73
2022/07/04 05:00:08;;;;;;;6.97;1.55;;;;;;;32.52;38.89;100507.72;2101624;28;20138;-74
2022/07/04 05:01:31;;;;;;;11.95;2.40;;;;;;;32.71;38.63;100508.00;2107979;28;20051;-74
2022/07/04 05:02:53;;;;;;;6.88;1.75;;;;;;;32.88;38.10;100507.53;2109208;28;20055;-73
2022/07/04 05:04:16;;;;;;;16.58;3.05;;;;;;;33.01;37.81;100504.66;2110238;28;20050;-73
2022/07/04 05:05:39;;;;;;;5.22;1.45;;;;;;;32.98;37.96;100504.88;2104105;28;20139;-74
2022/07/04 05:07:01;;;;;;;11.70;2.20;;;;;;;33.01;37.88;100507.38;2098342;28;20060;-73
2022/07/04 05:08:25;;;;;;;10.30;2.47;;;;;;;33.19;37.70;100514.97;2098993;28;20054;-74
2022/07/04 05:09:49;;;;;;;12.70;2.85;;;;;;;33.37;37.57;100515.31;2105793;28;20039;-74
2022/07/04 05:11:12;;;;;;;9.68;2.10;;;;;;;33.51;37.31;100512.28;2104765;28;20075;-74
2022/07/04 05:12:34;;;;;;;13.63;1.90;;;;;;;33.64;37.19;100512.13;2101276;28;20052;-73
2022/07/04 05:13:55;;;;;;;12.30;3.45;;;;;;;33.70;36.96;100511.59;2105132;28;20047;-74
2022/07/04 05:15:18;;;;;;;;;;;;;;;33.74;36.76;100513.09;2107339;28;20091;-74
2022/07/04 05:16:41;;;;;;;6.28;1.60;;;;;;;33.82;36.65;100509.72;2109185;28;20420;-74
2022/07/04 05:18:03;;;;;;;10.90;2.70;;;;;;;33.93;36.32;100517.91;2102203;28;20143;-74
2022/07/04 05:19:25;;;;;;;9.27;1.95;;;;;;;34.01;36.18;100521.69;2102076;28;20090;-74
2022/07/04 05:20:47;;;;;;;11.60;1.88;;;;;;;34.24;35.78;100521.63;2101926;28;20040;-74
2022/07/04 05:22:10;;;;;;;10.02;2.17;;;;;;;34.33;35.50;100518.09;2099494;28;20523;-73
2022/07/04 05:23:33;;;;;;;6.72;1.38;;;;;;;34.41;35.42;100512.78;2105635;28;20059;-74
2022/07/04 05:24:57;;;;;;;11.13;1.70;;;;;;;34.51;35.24;100508.25;2093933;28;20047;-74
2022/07/04 05:26:20;;;;;;;12.55;1.67;;;;;;;34.63;34.88;100504.41;2103078;28;20050;-74
2022/07/04 05:27:43;;;;;;;11.52;1.52;;;;;;;34.71;34.86;100518.34;2107260;28;20109;-74
2022/07/04 05:29:05;;;;;;;11.63;2.70;;;;;;;34.79;34.77;100510.28;2106264;28;20062;-74
2022/07/04 05:30:28;;;;;;;12.85;2.03;;;;;;;34.82;34.85;100508.28;2101685;28;20123;-74
2022/07/04 05:31:50;;;;;;;12.98;2.03;;;;;;;34.85;34.77;100513.50;2107095;28;20044;-74
2022/07/04 05:33:11;;;;;;;9.73;1.92;;;;;;;34.94;34.80;100515.41;2110298;28;20075;-74
2022/07/04 05:34:34;;;;;;;10.07;1.52;;;;;;;34.96;34.51;100522.50;2101941;28;20139;-75
2022/07/04 05:35:59;;;;;;;12.98;1.70;;;;;;;34.88;34.60;100524.19;2099027;28;20044;-74
2022/07/04 05:37:21;;;;;;;7.82;1.88;;;;;;;34.87;34.79;100514.22;2099777;28;20051;-74
2022/07/04 05:38:44;;;;;;;11.18;1.70;;;;;;;34.93;34.57;100514.53;2104559;28;20559;-74
2022/07/04 05:40:09;;;;;;;11.43;2.70;;;;;;;35.02;34.53;100513.72;2101899;28;20055;-74
2022/07/04 05:41:32;;;;;;;12.60;2.00;;;;;;;35.11;34.44;100521.13;2111554;28;20036;-74
2022/07/04 05:42:56;;;;;;;9.63;2.03;;;;;;;35.24;34.19;100520.03;2109317;28;20097;-74
2022/07/04 05:44:18;;;;;;;10.70;1.58;;;;;;;35.31;34.03;100518.47;2093513;28;20056;-73
2022/07/04 05:45:41;;;;;;;11.05;1.75;;;;;;;35.47;33.34;100522.38;2105427;28;20043;-74
2022/07/04 05:47:04;;;;;;;10.60;2.08;;;;;;;35.54;32.63;100517.19;2110423;28;20078;-74
2022/07/04 05:48:26;;;;;;;9.18;1.70;;;;;;;35.52;32.78;100516.44;2108296;28;20047;-73
2022/07/04 05:49:48;;;;;;;10.95;1.88;;;;;;;35.57;32.39;100511.44;2110243;28;20507;-73
2022/07/04 05:51:11;;;;;;;10.63;1.67;;;;;;;35.51;32.36;100515.59;2105106;28;20190;-73
2022/07/04 05:52:33;;;;;;;8.05;1.60;;;;;;;35.43;32.54;100529.19;2103550;28;20044;-73
2022/07/04 05:53:56;;;;;;;13.70;2.05;;;;;;;35.39;32.63;100533.19;2106773;28;20051;-73
2022/07/04 05:55:19;;;;;;;14.63;2.30;;;;;;;35.46;32.69;100526.13;2111517;28;20082;-74
2022/07/04 05:56:43;;;;;;;10.52;1.60;;;;;;;35.51;32.69;100532.06;2108075;28;20040;-73
2022/07/04 05:58:06;;;;;;;7.57;1.40;;;;;;;35.58;32.77;100526.88;2104572;28;20484;-74
2022/07/04 05:59:29;;;;;;;12.15;2.47;;;;;;;35.64;32.48;100539.19;2103480;28;20059;-73
2022/07/04 06:00:52;;;;;;;10.10;1.52;;;;;;;35.54;32.52;100542.78;2103585;28;20031;-74
2022/07/04 06:02:15;;;;;;;10.38;2.13;;;;;;;35.55;32.40;100538.16;2096958;28;20172;-73
2022/07/04 06:03:37;;;;;;;11.20;2.90;;;;;;;35.60;32.73;100535.84;2109568;28;20085;-74
2022/07/04 06:04:59;;;;;;;9.43;2.03;;;;;;;35.68;32.79;100533.25;2103454;28;20056;-73
2022/07/04 06:06:21;;;;;;;10.82;2.00;;;;;;;35.73;32.86;100535.59;2107398;28;20051;-74
2022/07/04 06:07:44;;;;;;;9.27;2.20;;;;;;;35.82;32.30;100532.00;2106758;28;20051;-73
2022/07/04 06:09:07;;;;;;;10.45;1.90;;;;;;;35.91;32.29;100532.00;2097428;28;20052;-74
2022/07/04 06:10:31;;;;;;;11.40;1.88;;;;;;;35.90;32.48;100533.03;2100651;28;20051;-73
2022/07/04 06:11:53;;;;;;;9.38;1.90;;;;;;;35.87;32.31;100529.69;2103624;28;20036;-73
2022/07/04 06:13:16;;;;;;;7.55;1.80;;;;;;;35.86;32.71;100533.44;2105395;28;20048;-73
2022/07/04 06:14:39;;;;;;;14.18;3.05;;;;;;;35.99;32.24;100533.16;2107304;28;20112;-74
2022/07/04 06:16:01;;;;;;;9.35;1.85;;;;;;;36.07;32.08;100533.31;2118200;27;20045;-74
2022/07/04 06:17:24;;;;;;;8.43;1.73;;;;;;;35.82;32.12;100529.25;2114073;28;20100;-73
2022/07/04 06:18:46;;;;;;;9.95;2.10;;;;;;;35.56;32.47;100535.28;2108707;28;20052;-73
2022/07/04 06:20:09;;;;;;;12.80;1.95;;;;;;;35.51;32.66;100539.47;2094787;28;20087;-73
2022/07/04 06:21:32;;;;;;;10.25;1.80;;;;;;;35.54;32.59;100544.66;2095447;28;20089;-73
2022/07/04 06:22:54;;;;;;;9.10;2.08;;;;;;;35.43;32.60;100542.91;2111863;27;20440;-73
2022/07/04 06:24:17;;;;;;;12.52;2.35;;;;;;;35.46;32.90;100547.25;2105035;28;20040;-73
2022/07/04 06:25:40;;;;;;;11.95;2.08;;;;;;;35.49;32.66;100544.22;2103658;28;20127;-73
2022/07/04 06:27:04;;;;;;;11.13;2.25;;;;;;;35.58;32.49;100548.84;2105412;28;20143;-74